In Rescue
 
Open Full Screen Window  High Contrast Mode
Wind Gusting 14 knots
08
May 25, 2022 9:50 PM CDT
Weather Information
Wind Direction
  020 °
Wind Speed
  08 kt (9 mph)
Wind Gust
  14 kt (16 mph)
Altimeter
29.87 in
Visibility
10 SM
Temperature
09° C
48° F
Dewpoint
07° C
45° F
Humidity
87%
1hr Rain Fall
00.00 in.
24hr Rain Fall
00.09 in.
Sky Condition
Overcast @ 1,200 ft
MVFR

METAR KCFE 260250Z AUTO 02008G14KT 10SM OVC012 09/07 A2987 RMK AO2

FAA Disclaimer: The data displayed is for advisory purposes only and is not to be used for flight planning or operations.